createdAt,value
2018-08-13T00:00:48.789Z,1.70
2018-08-13T00:03:17.732Z,1.90
2018-08-13T00:05:46.299Z,1.70
2018-08-13T00:08:15.266Z,1.93
2018-08-13T00:10:43.496Z,1.80
2018-08-13T00:13:11.703Z,1.67
2018-08-13T00:15:39.950Z,1.67
2018-08-13T00:18:09.080Z,1.63
2018-08-13T00:20:37.684Z,2.00
2018-08-13T00:23:06.040Z,2.43
2018-08-13T00:25:34.555Z,2.03
2018-08-13T00:28:02.760Z,2.27
2018-08-13T00:30:30.956Z,2.10
2018-08-13T00:32:59.182Z,1.50
2018-08-13T00:35:27.380Z,2.70
2018-08-13T00:37:55.591Z,1.60
2018-08-13T00:40:23.924Z,2.30
2018-08-13T00:42:52.136Z,1.97
2018-08-13T00:45:20.332Z,2.33
2018-08-13T00:47:48.577Z,2.53
2018-08-13T00:50:16.916Z,2.70
2018-08-13T00:52:45.463Z,2.70
2018-08-13T00:55:14.739Z,2.50
2018-08-13T00:57:42.996Z,2.20
2018-08-13T01:00:16.851Z,2.70
2018-08-13T01:02:45.640Z,2.23
2018-08-13T01:05:14.752Z,2.03
2018-08-13T01:07:43.087Z,1.73
2018-08-13T01:10:13.192Z,1.77
2018-08-13T01:12:41.704Z,1.80
2018-08-13T01:15:11.589Z,1.53
2018-08-13T01:17:41.019Z,1.77
2018-08-13T01:20:11.138Z,1.90
2018-08-13T01:22:39.710Z,1.57
2018-08-13T01:25:10.119Z,1.67
2018-08-13T01:27:38.568Z,1.60
2018-08-13T01:30:07.131Z,1.90
2018-08-13T01:32:35.339Z,2.40
2018-08-13T01:35:03.633Z,1.70
2018-08-13T01:37:31.843Z,1.90
2018-08-13T01:40:00.045Z,2.00
2018-08-13T01:42:28.267Z,1.70
2018-08-13T01:44:56.476Z,2.70
2018-08-13T01:47:24.696Z,2.97
2018-08-13T01:49:52.959Z,2.10
2018-08-13T01:52:21.155Z,2.13
2018-08-13T01:54:49.383Z,2.43
2018-08-13T01:57:17.575Z,2.20
2018-08-13T01:59:45.787Z,2.50
2018-08-13T02:02:14.459Z,2.70
2018-08-13T02:04:43.148Z,2.60
2018-08-13T02:07:11.539Z,1.80
2018-08-13T02:09:41.136Z,2.33
2018-08-13T02:12:10.275Z,1.93
2018-08-13T02:14:38.491Z,2.33
2018-08-13T02:17:06.796Z,2.20
2018-08-13T02:19:35.039Z,2.30
2018-08-13T02:22:03.248Z,1.90
2018-08-13T02:24:31.479Z,2.50
2018-08-13T02:26:59.716Z,2.33
2018-08-13T02:29:28.252Z,2.60
2018-08-13T02:31:57.020Z,2.43
2018-08-13T02:34:25.300Z,2.40
2018-08-13T02:36:53.503Z,2.40
2018-08-13T02:39:21.721Z,2.70
2018-08-13T02:41:49.908Z,1.90
2018-08-13T02:44:18.099Z,2.53
2018-08-13T02:46:46.332Z,2.10
2018-08-13T02:49:14.540Z,2.20
2018-08-13T02:51:42.788Z,1.90
2018-08-13T02:54:10.980Z,2.03
2018-08-13T02:56:39.200Z,2.47
2018-08-13T02:59:07.403Z,1.90
2018-08-13T03:01:35.652Z,2.43
2018-08-13T03:04:03.887Z,2.00
2018-08-13T03:06:32.140Z,2.30
2018-08-13T03:09:00.347Z,2.00
2018-08-13T03:11:28.564Z,2.00
2018-08-13T03:13:56.760Z,2.20
2018-08-13T03:16:24.988Z,1.90
2018-08-13T03:18:53.527Z,2.12
2018-08-13T03:21:21.762Z,1.83
2018-08-13T03:23:49.972Z,1.73
2018-08-13T03:26:18.193Z,1.73
2018-08-13T03:28:46.387Z,1.43
2018-08-13T03:31:14.611Z,2.77
2018-08-13T03:33:42.812Z,2.10
2018-08-13T03:36:11.024Z,2.20
2018-08-13T03:38:40.207Z,1.98
2018-08-13T03:41:08.416Z,1.90
2018-08-13T03:43:36.623Z,2.00
2018-08-13T03:46:04.836Z,1.70
2018-08-13T03:48:33.121Z,1.80
2018-08-13T03:51:01.361Z,3.02
2018-08-13T03:53:29.612Z,1.90
2018-08-13T03:55:57.820Z,2.30
2018-08-13T03:58:26.060Z,2.15
2018-08-13T04:00:54.272Z,2.17
2018-08-13T04:03:22.509Z,2.00
2018-08-13T04:05:50.728Z,2.65
2018-08-13T04:08:18.958Z,2.10
2018-08-13T04:10:47.200Z,1.92
2018-08-13T04:13:15.425Z,1.85
2018-08-13T04:15:43.620Z,2.13
2018-08-13T04:18:11.844Z,2.75
2018-08-13T04:20:40.040Z,2.13
2018-08-13T04:23:08.276Z,2.08
2018-08-13T04:25:36.502Z,1.93
2018-08-13T04:28:04.768Z,1.90
2018-08-13T04:30:32.976Z,2.20
2018-08-13T04:33:01.218Z,2.00
2018-08-13T04:35:31.080Z,2.60
2018-08-13T04:37:59.311Z,2.50
2018-08-13T04:40:27.706Z,2.93
2018-08-13T04:42:55.941Z,2.00
2018-08-13T04:45:24.188Z,2.40
2018-08-13T04:47:53.657Z,2.17
2018-08-13T04:50:21.960Z,2.25
2018-08-13T04:52:50.276Z,2.63
2018-08-13T04:55:19.279Z,1.80
2018-08-13T04:57:47.512Z,2.30
2018-08-13T05:00:15.790Z,2.20
2018-08-13T05:02:44.000Z,2.00
2018-08-13T05:05:12.668Z,1.90
2018-08-13T05:07:40.994Z,2.03
2018-08-13T05:10:10.652Z,2.20
2018-08-13T05:12:39.464Z,2.87
2018-08-13T05:15:08.931Z,2.50
2018-08-13T05:17:37.176Z,2.07
2018-08-13T05:20:05.780Z,2.70
2018-08-13T05:22:34.017Z,1.80
2018-08-13T05:25:02.552Z,2.70
2018-08-13T05:27:30.788Z,2.30
2018-08-13T05:29:59.078Z,1.92
2018-08-13T05:32:27.267Z,2.10
2018-08-13T05:34:55.492Z,2.67
2018-08-13T05:37:23.764Z,2.27
2018-08-13T05:39:52.006Z,2.30
2018-08-13T05:42:20.237Z,2.27
2018-08-13T05:44:48.458Z,2.30
2018-08-13T05:47:16.692Z,2.80
2018-08-13T05:49:44.919Z,2.37
2018-08-13T05:52:13.157Z,2.30
2018-08-13T05:54:41.367Z,2.05
2018-08-13T05:57:09.628Z,2.10
2018-08-13T05:59:37.838Z,2.08
2018-08-13T06:02:06.144Z,1.83
2018-08-13T06:04:34.361Z,1.70
2018-08-13T06:07:02.583Z,1.93
2018-08-13T06:09:30.789Z,2.03
2018-08-13T06:11:59.025Z,2.03
2018-08-13T06:14:27.269Z,2.22
2018-08-13T06:16:55.522Z,1.80
2018-08-13T06:19:23.734Z,2.17
2018-08-13T06:21:51.964Z,4.13
2018-08-13T06:24:20.258Z,2.10
2018-08-13T06:26:48.457Z,2.10
2018-08-13T06:29:16.666Z,1.77
2018-08-13T06:31:44.896Z,2.00
2018-08-13T06:34:14.068Z,2.02
2018-08-13T06:36:42.524Z,1.67
2018-08-13T06:39:11.632Z,1.47
2018-08-13T06:41:39.866Z,1.43
2018-08-13T06:44:08.064Z,2.33
2018-08-13T06:46:37.261Z,1.70
2018-08-13T06:49:05.944Z,1.62
2018-08-13T06:51:34.545Z,1.72
2018-08-13T06:54:02.792Z,2.00
2018-08-13T06:56:31.012Z,1.70
2018-08-13T06:58:59.211Z,1.77
2018-08-13T07:01:27.443Z,1.87
2018-08-13T07:03:55.656Z,1.42
2018-08-13T07:06:23.888Z,1.52
2018-08-13T07:08:52.113Z,1.55
2018-08-13T07:11:20.326Z,1.60
2018-08-13T07:13:48.601Z,1.45
2018-08-13T07:16:16.804Z,1.33
2018-08-13T07:18:45.033Z,1.43
2018-08-13T07:21:13.240Z,1.77
2018-08-13T07:23:41.456Z,1.23
2018-08-13T07:26:09.660Z,2.03
2018-08-13T07:28:37.892Z,1.80
2018-08-13T07:31:06.144Z,1.63
2018-08-13T07:33:34.405Z,1.47
2018-08-13T07:36:02.677Z,1.60
2018-08-13T07:38:30.913Z,1.70
2018-08-13T07:40:59.112Z,1.73
2018-08-13T07:43:27.359Z,1.57
2018-08-13T07:45:55.575Z,1.50
2018-08-13T07:48:23.840Z,1.57
2018-08-13T07:50:52.048Z,1.80
2018-08-13T07:53:20.281Z,2.53
2018-08-13T07:55:48.468Z,1.57
2018-08-13T07:58:16.692Z,1.97
2018-08-13T08:00:44.883Z,1.70
2018-08-13T08:03:13.097Z,1.87
2018-08-13T08:05:41.315Z,1.93
2018-08-13T08:08:09.550Z,1.67
2018-08-13T08:10:37.746Z,1.60
2018-08-13T08:13:06.389Z,1.70
2018-08-13T08:15:34.623Z,1.63
2018-08-13T08:18:02.847Z,1.40
2018-08-13T08:20:31.048Z,1.77
2018-08-13T08:22:59.287Z,1.93
2018-08-13T08:25:27.495Z,2.20
2018-08-13T08:27:55.715Z,1.80
2018-08-13T08:30:23.930Z,1.73
2018-08-13T08:32:52.167Z,2.30
2018-08-13T08:35:20.378Z,1.60
2018-08-13T08:37:48.632Z,1.80
2018-08-13T08:40:19.004Z,2.03
2018-08-13T08:42:47.707Z,1.93
2018-08-13T08:45:21.505Z,2.23
2018-08-13T08:47:49.976Z,2.90
2018-08-13T08:50:18.176Z,2.47
2018-08-13T08:52:47.259Z,2.00
2018-08-13T08:55:16.536Z,1.77
2018-08-13T08:57:45.068Z,2.10
2018-08-13T09:00:17.900Z,2.10
2018-08-13T09:02:46.289Z,1.73
2018-08-13T09:05:15.783Z,2.27
2018-08-13T09:07:44.680Z,2.13
2018-08-13T09:10:12.925Z,2.00
2018-08-13T09:12:41.175Z,2.03
2018-08-13T09:15:11.364Z,2.03
2018-08-13T09:17:50.924Z,1.80
2018-08-13T09:20:30.370Z,2.20
2018-08-13T09:23:09.889Z,2.33
2018-08-13T09:25:49.495Z,2.00
2018-08-13T09:28:29.164Z,1.87
2018-08-13T09:31:08.925Z,1.80
2018-08-13T09:33:48.636Z,1.90
2018-08-13T09:36:16.850Z,1.90
2018-08-13T09:38:45.080Z,2.27
2018-08-13T09:41:13.290Z,1.97
2018-08-13T09:43:41.531Z,1.90
2018-08-13T09:46:09.747Z,2.20
2018-08-13T09:48:37.977Z,1.97
2018-08-13T09:51:06.200Z,1.90
2018-08-13T09:53:34.484Z,2.00
2018-08-13T09:56:02.728Z,2.10
2018-08-13T09:58:30.920Z,1.60
2018-08-13T10:01:04.524Z,2.00
2018-08-13T10:03:32.736Z,2.00
2018-08-13T10:06:00.964Z,1.80
2018-08-13T10:08:29.176Z,2.40
2018-08-13T10:10:57.448Z,2.07
2018-08-13T10:13:25.620Z,1.57
2018-08-13T10:15:53.853Z,2.47
2018-08-13T10:18:22.073Z,1.97
2018-08-13T10:20:50.296Z,2.50
2018-08-13T10:23:18.505Z,1.73
2018-08-13T10:25:46.736Z,2.30
2018-08-13T10:28:14.959Z,1.53
2018-08-13T10:30:43.201Z,1.90
2018-08-13T10:33:11.409Z,2.27
2018-08-13T10:35:39.657Z,2.03
2018-08-13T10:38:07.861Z,1.90
2018-08-13T10:40:36.092Z,2.17
2018-08-13T10:43:04.312Z,1.77
2018-08-13T10:45:32.541Z,2.00
2018-08-13T10:48:00.759Z,2.00
2018-08-13T10:50:29.040Z,1.73
2018-08-13T10:52:57.239Z,1.60
2018-08-13T10:55:25.463Z,2.20
2018-08-13T10:57:53.696Z,1.57
2018-08-13T11:00:21.935Z,1.40
2018-08-13T11:02:50.214Z,1.02
2018-08-13T11:05:19.407Z,1.10
2018-08-13T11:07:47.619Z,1.10
2018-08-13T11:10:16.400Z,1.20
2018-08-13T11:12:44.668Z,1.23
2018-08-13T11:15:17.543Z,1.40
2018-08-13T11:17:46.102Z,1.13
2018-08-13T11:20:14.322Z,0.90
2018-08-13T11:22:43.326Z,0.93
2018-08-13T11:25:13.312Z,1.42
2018-08-13T11:27:41.679Z,1.05
2018-08-13T11:30:12.875Z,1.23
2018-08-13T11:32:41.087Z,1.25
2018-08-13T11:35:09.350Z,1.10
2018-08-13T11:37:37.593Z,1.23
2018-08-13T11:40:09.395Z,1.25
2018-08-13T11:42:37.708Z,1.40
2018-08-13T11:45:06.149Z,1.50
2018-08-13T11:47:34.675Z,1.27
2018-08-13T11:50:03.210Z,1.20
2018-08-13T11:52:31.625Z,1.50
2018-08-13T11:54:59.933Z,1.50
2018-08-13T11:57:29.053Z,1.37
2018-08-13T11:59:57.320Z,1.27
2018-08-13T12:02:25.548Z,1.93
2018-08-13T12:04:53.795Z,1.77
2018-08-13T12:07:22.061Z,1.30
2018-08-13T12:09:50.364Z,1.60
2018-08-13T12:12:18.666Z,1.27
2018-08-13T12:14:46.888Z,1.40
2018-08-13T12:17:15.258Z,1.40
2018-08-13T12:19:43.480Z,1.70
2018-08-13T12:22:11.720Z,1.63
2018-08-13T12:24:40.014Z,1.35
2018-08-13T12:27:08.280Z,2.07
2018-08-13T12:29:36.790Z,1.30
2018-08-13T12:32:05.361Z,1.27
2018-08-13T12:34:33.580Z,1.70
2018-08-13T12:37:07.194Z,1.43
2018-08-13T12:39:36.196Z,2.03
2018-08-13T12:42:04.944Z,1.43
2018-08-13T12:44:33.146Z,1.43
2018-08-13T12:47:01.479Z,1.53
2018-08-13T12:49:29.704Z,1.70
2018-08-13T12:51:57.999Z,1.62
2018-08-13T12:54:26.231Z,1.30
2018-08-13T12:56:54.464Z,1.47
2018-08-13T12:59:23.704Z,1.70
2018-08-13T13:01:51.935Z,1.20
2018-08-13T13:04:20.151Z,1.77
2018-08-13T13:06:48.416Z,1.60
2018-08-13T13:09:17.167Z,1.80
2018-08-13T13:11:45.464Z,1.47
2018-08-13T13:14:13.696Z,1.30
2018-08-13T13:16:41.988Z,1.37
2018-08-13T13:19:10.220Z,1.40
2018-08-13T13:21:38.449Z,1.27
2018-08-13T13:24:06.793Z,1.67
2018-08-13T13:26:35.808Z,1.77
2018-08-13T13:29:05.484Z,1.50
2018-08-13T13:31:33.712Z,1.90
2018-08-13T13:34:01.944Z,1.67
2018-08-13T13:36:30.203Z,1.50
2018-08-13T13:38:58.473Z,1.80
2018-08-13T13:41:26.888Z,1.90
2018-08-13T13:43:55.115Z,1.80
2018-08-13T13:46:23.367Z,1.60
2018-08-13T13:48:51.600Z,1.47
2018-08-13T13:51:19.811Z,1.73
2018-08-13T13:53:48.032Z,1.80
2018-08-13T13:56:16.253Z,2.20
2018-08-13T13:58:44.476Z,2.20
2018-08-13T14:01:12.752Z,1.67
2018-08-13T14:03:40.981Z,1.47
2018-08-13T14:06:09.451Z,1.92
2018-08-13T14:08:37.684Z,1.60
2018-08-13T14:11:05.964Z,1.95
2018-08-13T14:13:34.196Z,1.43
2018-08-13T14:16:02.403Z,1.33
2018-08-13T14:18:30.619Z,1.47
2018-08-13T14:20:58.846Z,1.63
2018-08-13T14:23:27.084Z,1.40
2018-08-13T14:25:55.284Z,1.60
2018-08-13T14:28:23.521Z,1.77
2018-08-13T14:30:51.760Z,2.40
2018-08-13T14:33:19.987Z,2.25
2018-08-13T14:35:48.180Z,2.00
2018-08-13T14:38:16.440Z,2.40
2018-08-13T14:40:44.648Z,2.60
2018-08-13T14:43:12.895Z,2.63
2018-08-13T14:45:41.104Z,2.53
2018-08-13T14:48:09.348Z,2.17
2018-08-13T14:50:37.553Z,2.30
2018-08-13T14:53:05.856Z,1.67
2018-08-13T14:55:35.080Z,1.67
2018-08-13T14:58:03.319Z,1.60
2018-08-13T15:00:33.157Z,1.30
2018-08-13T15:03:01.402Z,1.50
2018-08-13T15:05:29.673Z,1.20
2018-08-13T15:07:58.001Z,1.50
2018-08-13T15:10:26.672Z,1.20
2018-08-13T15:12:55.167Z,1.42
2018-08-13T15:15:23.409Z,43.53
2018-08-13T15:17:51.672Z,5.03
2018-08-13T15:20:24.320Z,3.27
2018-08-13T15:22:52.603Z,1.93
2018-08-13T15:25:20.907Z,2.03
2018-08-13T15:27:49.184Z,2.00
2018-08-13T15:30:18.188Z,1.50
2018-08-13T15:32:47.464Z,1.50
2018-08-13T15:35:15.697Z,2.08
2018-08-13T15:37:44.499Z,1.60
2018-08-13T15:40:12.752Z,1.70
2018-08-13T15:42:41.148Z,1.30
2018-08-13T15:45:14.877Z,1.87
2018-08-13T15:47:43.234Z,1.30
2018-08-13T15:50:13.084Z,1.40
2018-08-13T15:52:41.586Z,1.55
2018-08-13T15:55:09.932Z,1.73
2018-08-13T15:57:38.168Z,1.55
2018-08-13T16:00:07.672Z,1.80
2018-08-13T16:02:36.572Z,1.50
2018-08-13T16:05:06.594Z,1.80
2018-08-13T16:07:34.812Z,1.90
2018-08-13T16:10:03.050Z,1.30
2018-08-13T16:12:31.248Z,1.40
2018-08-13T16:14:59.467Z,1.50
2018-08-13T16:17:27.756Z,1.55
2018-08-13T16:19:56.025Z,1.52
2018-08-13T16:22:24.227Z,1.70
2018-08-13T16:24:52.746Z,2.27
2018-08-13T16:27:20.944Z,1.73
2018-08-13T16:29:49.276Z,1.40
2018-08-13T16:32:17.476Z,1.97
2018-08-13T16:34:45.696Z,1.60
2018-08-13T16:37:13.935Z,2.08
2018-08-13T16:39:42.173Z,1.97
2018-08-13T16:42:10.400Z,1.83
2018-08-13T16:44:39.542Z,2.60
2018-08-13T16:47:07.789Z,2.70
2018-08-13T16:49:36.017Z,2.03
2018-08-13T16:52:04.320Z,2.87
2018-08-13T16:54:32.548Z,2.60
2018-08-13T16:57:00.791Z,2.30
2018-08-13T16:59:29.028Z,2.40
2018-08-13T17:01:57.247Z,2.40
2018-08-13T17:04:26.548Z,2.47
2018-08-13T17:06:54.753Z,2.37
2018-08-13T17:09:22.975Z,2.03
2018-08-13T17:11:51.192Z,2.07
2018-08-13T17:14:19.670Z,2.70
2018-08-13T17:16:48.288Z,1.90
2018-08-13T17:19:16.513Z,2.13
2018-08-13T17:21:44.707Z,1.93
2018-08-13T17:24:14.272Z,2.10
2018-08-13T17:26:42.844Z,2.20
2018-08-13T17:29:11.141Z,2.52
2018-08-13T17:31:39.599Z,2.00
2018-08-13T17:34:08.732Z,2.08
2018-08-13T17:36:38.275Z,3.40
2018-08-13T17:39:10.028Z,3.55
2018-08-13T17:41:38.693Z,2.17
2018-08-13T17:44:06.932Z,2.62
2018-08-13T17:46:35.216Z,2.30
2018-08-13T17:49:03.792Z,2.03
2018-08-13T17:51:32.124Z,1.80
2018-08-13T17:54:00.372Z,2.12
2018-08-13T17:56:28.660Z,2.33
2018-08-13T17:58:56.939Z,2.00
2018-08-13T18:01:25.399Z,1.67
2018-08-13T18:03:54.108Z,2.10
2018-08-13T18:06:22.496Z,2.23
2018-08-13T18:08:50.897Z,2.20
2018-08-13T18:11:19.269Z,2.67
2018-08-13T18:13:47.473Z,1.93
2018-08-13T18:16:15.707Z,2.10
2018-08-13T18:18:43.934Z,2.22
2018-08-13T18:21:12.181Z,2.10
2018-08-13T18:23:40.496Z,2.90
2018-08-13T18:26:09.557Z,2.20
2018-08-13T18:28:37.888Z,2.17
2018-08-13T18:31:06.627Z,2.33
2018-08-13T18:33:34.824Z,2.53
2018-08-13T18:36:03.175Z,2.20
2018-08-13T18:38:31.480Z,2.80
2018-08-13T18:40:59.700Z,2.20
2018-08-13T18:43:27.917Z,2.23
2018-08-13T18:45:56.751Z,1.98
2018-08-13T18:48:25.026Z,2.02
2018-08-13T18:50:53.620Z,2.30
2018-08-13T18:53:23.158Z,1.93
2018-08-13T18:55:51.527Z,2.00
2018-08-13T18:58:19.793Z,2.67
2018-08-13T19:00:51.720Z,2.50
2018-08-13T19:03:20.105Z,1.92
2018-08-13T19:05:48.387Z,2.20
2018-08-13T19:08:17.958Z,1.98
2018-08-13T19:10:46.329Z,2.42
2018-08-13T19:13:14.554Z,2.07
2018-08-13T19:15:42.829Z,2.40
2018-08-13T19:18:11.127Z,1.90
2018-08-13T19:20:39.468Z,2.17
2018-08-13T19:23:07.687Z,2.50
2018-08-13T19:25:35.933Z,2.70
2018-08-13T19:28:06.052Z,2.40
2018-08-13T19:30:34.280Z,2.77
2018-08-13T19:33:02.573Z,2.50
2018-08-13T19:35:30.835Z,2.57
2018-08-13T19:37:59.057Z,2.60
2018-08-13T19:40:28.227Z,2.60
2018-08-13T19:42:56.464Z,2.70
2018-08-13T19:45:24.694Z,3.00
2018-08-13T19:47:53.629Z,2.70
2018-08-13T19:50:21.832Z,2.70
2018-08-13T19:52:51.502Z,2.17
2018-08-13T19:55:20.266Z,3.53
2018-08-13T19:57:48.504Z,2.67
2018-08-13T20:00:23.366Z,2.60
2018-08-13T20:02:52.246Z,2.87
2018-08-13T20:05:22.630Z,2.37
2018-08-13T20:07:51.366Z,2.53
2018-08-13T20:10:19.712Z,3.15
2018-08-13T20:12:48.441Z,3.37
2018-08-13T20:15:16.682Z,2.15
2018-08-13T20:17:45.268Z,3.00
2018-08-13T20:20:15.853Z,2.23
2018-08-13T20:22:45.917Z,2.37
2018-08-13T20:25:15.365Z,2.63
2018-08-13T20:27:43.892Z,2.70
2018-08-13T20:30:14.207Z,2.40
2018-08-13T20:32:42.905Z,2.57
2018-08-13T20:35:11.136Z,2.30
2018-08-13T20:37:39.591Z,2.70
2018-08-13T20:40:09.985Z,2.03
2018-08-13T20:42:38.880Z,3.30
2018-08-13T20:45:09.369Z,2.80
2018-08-13T20:47:37.634Z,2.23
2018-08-13T20:50:08.826Z,2.77
2018-08-13T20:52:37.130Z,2.70
2018-08-13T20:55:07.671Z,3.20
2018-08-13T20:57:35.959Z,2.83
2018-08-13T21:00:05.534Z,3.80
2018-08-13T21:02:33.824Z,3.40
2018-08-13T21:05:02.082Z,3.40
2018-08-13T21:07:30.369Z,3.60
2018-08-13T21:09:58.627Z,4.23
2018-08-13T21:12:26.929Z,4.03
2018-08-13T21:14:55.276Z,4.20
2018-08-13T21:17:23.504Z,4.28
2018-08-13T21:19:51.741Z,4.00
2018-08-13T21:22:19.994Z,4.70
2018-08-13T21:24:48.336Z,5.33
2018-08-13T21:27:16.596Z,4.80
2018-08-13T21:29:44.833Z,5.28
2018-08-13T21:32:13.106Z,4.27
2018-08-13T21:34:41.370Z,4.90
2018-08-13T21:37:09.750Z,5.37
2018-08-13T21:39:38.013Z,5.00
2018-08-13T21:42:06.255Z,5.20
2018-08-13T21:44:34.480Z,4.73
2018-08-13T21:47:02.756Z,4.90
2018-08-13T21:49:31.000Z,5.00
2018-08-13T21:51:59.260Z,5.65
2018-08-13T21:54:27.520Z,7.73
2018-08-13T21:56:55.746Z,6.35
2018-08-13T21:59:24.033Z,6.53
2018-08-13T22:01:54.183Z,7.75
2018-08-13T22:04:22.645Z,8.67
2018-08-13T22:06:50.881Z,8.93
2018-08-13T22:09:19.155Z,7.90
2018-08-13T22:11:47.389Z,9.00
2018-08-13T22:14:15.708Z,8.08
2018-08-13T22:16:43.936Z,9.50
2018-08-13T22:19:12.179Z,9.80
2018-08-13T22:21:40.400Z,9.80
2018-08-13T22:24:20.085Z,9.17
2018-08-13T22:26:48.312Z,10.35
2018-08-13T22:29:16.574Z,9.83
2018-08-13T22:31:44.935Z,10.50
2018-08-13T22:34:13.192Z,11.50
2018-08-13T22:36:41.442Z,15.23
2018-08-13T22:39:09.785Z,13.07
2018-08-13T22:41:38.280Z,13.18
2018-08-13T22:44:06.755Z,14.27
2018-08-13T22:46:35.237Z,15.10
2018-08-13T22:49:03.559Z,14.47
2018-08-13T22:51:31.784Z,15.33
2018-08-13T22:54:00.032Z,14.73
2018-08-13T22:56:28.289Z,15.33
2018-08-13T22:58:56.542Z,15.90
2018-08-13T23:01:24.785Z,16.30
2018-08-13T23:03:53.356Z,16.87
2018-08-13T23:06:21.608Z,16.70
2018-08-13T23:08:49.860Z,16.77
2018-08-13T23:11:18.096Z,17.60
2018-08-13T23:13:46.336Z,16.97
2018-08-13T23:16:14.552Z,16.10
2018-08-13T23:18:42.777Z,17.10
2018-08-13T23:21:11.001Z,16.70
2018-08-13T23:23:39.235Z,17.67
2018-08-13T23:26:07.466Z,15.40
2018-08-13T23:28:35.725Z,16.70
2018-08-13T23:31:03.976Z,15.83
2018-08-13T23:33:32.208Z,16.40
2018-08-13T23:36:00.428Z,17.30
2018-08-13T23:38:28.664Z,16.30
2018-08-13T23:40:56.919Z,16.90
2018-08-13T23:43:25.152Z,17.53
2018-08-13T23:45:53.364Z,18.93
2018-08-13T23:48:21.595Z,17.57
2018-08-13T23:50:49.895Z,19.53
2018-08-13T23:53:18.118Z,17.80
2018-08-13T23:55:46.358Z,17.97
2018-08-13T23:58:14.785Z,17.67
